createdAt,value
2022-09-09T00:04:00.635Z,15.31
2022-09-09T00:09:05.554Z,15.31
2022-09-09T00:14:14.230Z,15.26
2022-09-09T00:19:22.053Z,15.39
2022-09-09T00:24:36.198Z,15.43
2022-09-09T00:29:44.946Z,15.35
2022-09-09T00:34:49.183Z,15.28
2022-09-09T00:39:53.066Z,15.19
2022-09-09T00:44:59.532Z,15.13
2022-09-09T00:50:05.495Z,15.11
2022-09-09T00:55:06.925Z,15.07
2022-09-09T01:00:22.701Z,15.21
2022-09-09T01:05:31.464Z,15.22
2022-09-09T01:10:35.604Z,15.18
2022-09-09T01:15:38.536Z,15.18
2022-09-09T01:20:55.156Z,15.20
2022-09-09T01:26:15.651Z,15.21
2022-09-09T01:31:35.704Z,15.21
2022-09-09T01:36:41.686Z,15.17
2022-09-09T01:41:42.993Z,15.15
2022-09-09T01:46:44.542Z,15.16
2022-09-09T01:51:47.439Z,15.12
2022-09-09T01:57:07.258Z,15.24
2022-09-09T02:02:08.702Z,15.30
2022-09-09T02:07:42.821Z,15.33
2022-09-09T02:12:51.849Z,15.24
2022-09-09T02:17:54.139Z,15.28
2022-09-09T02:22:56.889Z,15.24
2022-09-09T02:28:01.173Z,15.27
2022-09-09T02:33:04.890Z,15.24
2022-09-09T02:38:08.728Z,15.30
2022-09-09T02:43:10.057Z,15.28
2022-09-09T02:48:20.408Z,15.22
2022-09-09T02:53:24.431Z,15.19
2022-09-09T02:58:26.056Z,15.14
2022-09-09T03:03:28.109Z,14.99
2022-09-09T03:08:29.493Z,14.92
2022-09-09T03:13:31.238Z,14.84
2022-09-09T03:18:33.298Z,14.82
2022-09-09T03:23:34.781Z,14.89
2022-09-09T03:28:36.577Z,14.94
2022-09-09T03:33:38.842Z,14.96
2022-09-09T03:38:40.402Z,14.98
2022-09-09T03:43:42.858Z,14.98
2022-09-09T03:48:44.192Z,15.05
2022-09-09T03:53:45.509Z,15.14
2022-09-09T03:58:46.841Z,15.13
2022-09-09T04:03:48.197Z,15.11
2022-09-09T04:08:49.814Z,15.12
2022-09-09T04:13:51.210Z,15.10
2022-09-09T04:18:54.135Z,15.06
2022-09-09T04:23:55.442Z,15.02
2022-09-09T04:28:56.759Z,15.06
2022-09-09T04:33:58.068Z,15.03
2022-09-09T04:38:59.800Z,15.10
2022-09-09T04:44:01.826Z,15.08
2022-09-09T04:49:03.308Z,15.08
2022-09-09T04:54:04.626Z,15.11
2022-09-09T04:59:06.607Z,15.16
2022-09-09T05:04:07.930Z,15.23
2022-09-09T05:09:09.752Z,15.22
2022-09-09T05:14:13.159Z,15.23
2022-09-09T05:19:14.589Z,15.32
2022-09-09T05:24:16.175Z,15.38
2022-09-09T05:29:19.966Z,15.50
2022-09-09T05:34:21.739Z,15.58
2022-09-09T05:39:23.054Z,15.73
2022-09-09T05:44:28.430Z,15.91
2022-09-09T05:49:29.820Z,15.93
2022-09-09T05:54:31.162Z,16.08
2022-09-09T05:59:33.232Z,16.10
2022-09-09T06:04:34.677Z,16.08
2022-09-09T06:09:35.976Z,16.00
2022-09-09T06:14:37.884Z,15.96
2022-09-09T06:19:39.331Z,18.97
2022-09-09T06:24:40.643Z,19.25
2022-09-09T06:29:41.954Z,20.50
2022-09-09T06:34:43.302Z,21.41
2022-09-09T06:39:44.769Z,21.64
2022-09-09T06:44:46.224Z,22.85
2022-09-09T06:49:48.428Z,23.41
2022-09-09T06:54:49.852Z,23.91
2022-09-09T06:59:51.560Z,23.08
2022-09-09T07:04:53.083Z,23.64
2022-09-09T07:09:54.548Z,23.09
2022-09-09T07:14:56.186Z,23.71
2022-09-09T07:19:57.817Z,24.49
2022-09-09T07:24:59.141Z,24.30
2022-09-09T07:30:00.456Z,22.93
2022-09-09T07:35:01.763Z,23.06
2022-09-09T07:40:05.524Z,23.34
2022-09-09T07:45:07.175Z,22.84
2022-09-09T07:50:09.590Z,22.08
2022-09-09T07:55:11.173Z,22.91
2022-09-09T08:00:12.754Z,24.61
2022-09-09T08:05:14.058Z,23.96
2022-09-09T08:10:16.962Z,21.08
2022-09-09T08:15:19.135Z,23.53
2022-09-09T08:20:20.431Z,25.49
2022-09-09T08:25:23.522Z,22.36
2022-09-09T08:30:24.832Z,24.49
2022-09-09T08:35:26.313Z,25.40
2022-09-09T08:40:30.509Z,27.12
2022-09-09T08:45:40.241Z,26.48
2022-09-09T08:50:44.317Z,22.80
2022-09-09T08:55:50.793Z,22.62
2022-09-09T09:01:12.537Z,21.58
2022-09-09T09:06:13.909Z,20.89
2022-09-09T09:11:15.263Z,21.13
2022-09-09T09:16:35.257Z,21.19
2022-09-09T09:21:42.485Z,20.73
2022-09-09T09:26:44.025Z,21.56
2022-09-09T09:31:56.412Z,20.85
2022-09-09T09:36:58.410Z,20.71
2022-09-09T09:42:08.757Z,20.62
2022-09-09T09:47:14.449Z,20.20
2022-09-09T09:52:19.060Z,20.62
2022-09-09T09:57:25.291Z,20.52
2022-09-09T10:02:27.654Z,20.27
2022-09-09T10:07:29.572Z,21.12
2022-09-09T10:12:30.994Z,21.25
2022-09-09T10:17:55.974Z,20.74
2022-09-09T10:23:16.301Z,21.09
2022-09-09T10:28:20.792Z,20.31
2022-09-09T10:33:24.001Z,20.65
2022-09-09T10:38:37.377Z,21.46
2022-09-09T10:43:52.092Z,23.18
2022-09-09T10:49:06.576Z,24.68
2022-09-09T10:54:17.368Z,24.87
2022-09-09T10:59:23.606Z,22.83
2022-09-09T11:04:28.216Z,21.30
2022-09-09T11:09:32.178Z,21.23
2022-09-09T11:14:41.396Z,24.23
2022-09-09T11:19:44.563Z,22.17
2022-09-09T11:24:48.636Z,21.29
2022-09-09T11:30:03.221Z,20.54
2022-09-09T11:35:22.973Z,20.00
2022-09-09T11:40:24.934Z,20.20
2022-09-09T11:45:30.216Z,21.00
2022-09-09T11:50:33.249Z,23.05
2022-09-09T11:55:35.769Z,24.80
2022-09-09T12:00:48.056Z,26.03
2022-09-09T12:05:52.396Z,24.40
2022-09-09T12:10:55.505Z,25.28
2022-09-09T12:15:58.136Z,24.34
2022-09-09T12:21:19.137Z,23.71
2022-09-09T12:26:20.424Z,23.19
2022-09-09T12:31:27.748Z,23.13
2022-09-09T12:36:31.052Z,23.05
2022-09-09T12:41:32.364Z,22.20
2022-09-09T12:46:39.131Z,22.15
2022-09-09T12:51:44.339Z,22.20
2022-09-09T12:56:49.500Z,22.44
2022-09-09T13:01:57.952Z,21.80
2022-09-09T13:07:12.043Z,21.71
2022-09-09T13:12:20.857Z,21.45
2022-09-09T13:17:23.585Z,21.49
2022-09-09T13:22:31.692Z,21.25
2022-09-09T13:27:39.808Z,21.16
2022-09-09T13:32:41.242Z,21.22
2022-09-09T13:37:42.576Z,21.01
2022-09-09T13:42:45.346Z,19.51
2022-09-09T13:47:47.165Z,19.07
2022-09-09T13:52:50.089Z,19.21
2022-09-09T13:57:55.485Z,18.85
2022-09-09T14:02:56.829Z,18.47
2022-09-09T14:07:58.799Z,18.51
2022-09-09T14:13:00.097Z,18.24
2022-09-09T14:18:01.399Z,18.71
2022-09-09T14:23:03.616Z,18.95
2022-09-09T14:28:05.058Z,19.16
2022-09-09T14:33:06.902Z,19.01
2022-09-09T14:38:09.061Z,18.94
2022-09-09T14:43:11.565Z,18.77
2022-09-09T14:48:12.895Z,18.70
2022-09-09T14:53:14.209Z,18.49
2022-09-09T14:58:15.597Z,18.55
2022-09-09T15:03:16.900Z,18.63
2022-09-09T15:08:18.292Z,18.66
2022-09-09T15:13:19.607Z,18.75
2022-09-09T15:18:21.345Z,18.71
2022-09-09T15:23:22.658Z,18.56
2022-09-09T15:28:24.285Z,18.61
2022-09-09T15:33:25.602Z,18.35
2022-09-09T15:38:27.935Z,18.25
2022-09-09T15:43:29.252Z,18.11
2022-09-09T15:48:33.869Z,18.24
2022-09-09T15:53:35.302Z,18.27
2022-09-09T15:58:37.271Z,18.05
2022-09-09T16:03:44.079Z,17.99
2022-09-09T16:08:51.170Z,17.74
2022-09-09T16:13:53.610Z,17.35
2022-09-09T16:18:56.261Z,17.06
2022-09-09T16:24:00.270Z,16.70
2022-09-09T16:29:02.322Z,16.66
2022-09-09T16:34:04.585Z,16.64
2022-09-09T16:39:07.711Z,16.49
2022-09-09T16:44:09.795Z,16.49
2022-09-09T16:49:12.684Z,16.45
2022-09-09T16:54:15.022Z,16.47
2022-09-09T16:59:17.822Z,16.46
2022-09-09T17:04:24.959Z,16.45
2022-09-09T17:09:29.994Z,16.43
2022-09-09T17:14:32.187Z,16.36
2022-09-09T17:19:33.579Z,16.36
2022-09-09T17:24:35.311Z,16.31
2022-09-09T17:29:39.329Z,16.25
2022-09-09T17:34:40.654Z,16.23
2022-09-09T17:39:42.027Z,16.19
2022-09-09T17:44:43.354Z,16.14
2022-09-09T17:49:44.853Z,16.10
2022-09-09T17:54:46.557Z,16.04
2022-09-09T17:59:47.872Z,16.05
2022-09-09T18:04:49.201Z,15.94
2022-09-09T18:09:50.509Z,15.82
2022-09-09T18:14:52.470Z,15.68
2022-09-09T18:19:54.927Z,15.58
2022-09-09T18:24:56.629Z,15.46
2022-09-09T18:29:57.952Z,15.53
2022-09-09T18:34:59.255Z,15.58
2022-09-09T18:40:01.636Z,15.56
2022-09-09T18:45:03.162Z,15.48
2022-09-09T18:50:04.800Z,15.27
2022-09-09T18:55:06.689Z,15.20
2022-09-09T19:00:10.165Z,15.11
2022-09-09T19:05:11.957Z,15.07
2022-09-09T19:10:13.360Z,14.92
2022-09-09T19:15:15.418Z,14.88
2022-09-09T19:20:17.155Z,14.89
2022-09-09T19:25:18.477Z,14.88
2022-09-09T19:30:19.784Z,14.95
2022-09-09T19:35:21.157Z,14.96
2022-09-09T19:40:23.007Z,14.91
2022-09-09T19:45:24.302Z,14.91
2022-09-09T19:50:25.680Z,14.93
2022-09-09T19:55:28.944Z,14.95
2022-09-09T20:00:31.243Z,14.95
2022-09-09T20:05:33.758Z,15.01
2022-09-09T20:10:35.143Z,15.02
2022-09-09T20:15:36.554Z,14.94
2022-09-09T20:20:42.804Z,14.87
2022-09-09T20:25:45.157Z,14.81
2022-09-09T20:30:47.637Z,14.70
2022-09-09T20:35:49.561Z,14.66
2022-09-09T20:40:50.929Z,14.69
2022-09-09T20:45:54.076Z,14.72
2022-09-09T20:50:55.462Z,14.84
2022-09-09T20:56:01.048Z,14.92
2022-09-09T21:01:05.039Z,14.88
2022-09-09T21:06:07.175Z,14.92
2022-09-09T21:11:08.567Z,14.96
2022-09-09T21:16:12.570Z,14.94
2022-09-09T21:21:14.873Z,14.92
2022-09-09T21:26:18.164Z,14.84
2022-09-09T21:31:19.942Z,14.76
2022-09-09T21:36:21.296Z,14.62
2022-09-09T21:41:22.604Z,14.50
2022-09-09T21:46:26.475Z,14.41
2022-09-09T21:51:28.016Z,14.36
2022-09-09T21:56:29.345Z,14.32
2022-09-09T22:01:33.428Z,14.31
2022-09-09T22:06:35.299Z,14.31
2022-09-09T22:11:36.859Z,14.32
2022-09-09T22:16:38.454Z,14.28
2022-09-09T22:21:39.870Z,14.24
2022-09-09T22:26:42.183Z,14.28
2022-09-09T22:31:43.487Z,14.37
2022-09-09T22:36:46.048Z,14.40
2022-09-09T22:41:48.054Z,14.40
2022-09-09T22:46:49.475Z,14.37
2022-09-09T22:51:50.794Z,14.28
2022-09-09T22:56:52.104Z,14.33
2022-09-09T23:01:53.425Z,14.32
2022-09-09T23:06:54.755Z,14.29
2022-09-09T23:11:56.478Z,14.24
2022-09-09T23:16:57.788Z,14.26
2022-09-09T23:21:59.609Z,14.19
2022-09-09T23:27:00.920Z,14.16
2022-09-09T23:32:02.889Z,14.11
2022-09-09T23:37:04.220Z,14.04
2022-09-09T23:42:08.060Z,13.93
2022-09-09T23:47:09.493Z,13.69
2022-09-09T23:52:10.820Z,13.63
2022-09-09T23:57:13.565Z,13.64
